createdAt,value
2023-02-17T00:00:49.422Z,28.62
2023-02-17T00:01:49.447Z,28.63
2023-02-17T00:02:49.468Z,28.62
2023-02-17T00:03:49.527Z,28.62
2023-02-17T00:04:49.538Z,28.62
2023-02-17T00:05:51.063Z,28.62
2023-02-17T00:06:49.587Z,28.64
2023-02-17T00:07:49.590Z,28.62
2023-02-17T00:08:49.604Z,28.60
2023-02-17T00:09:49.608Z,28.62
2023-02-17T00:10:49.615Z,28.62
2023-02-17T00:11:49.657Z,28.62
2023-02-17T00:12:49.688Z,28.62
2023-02-17T00:13:49.707Z,28.63
2023-02-17T00:14:49.716Z,28.60
2023-02-17T00:15:49.802Z,28.63
2023-02-17T00:16:49.797Z,28.63
2023-02-17T00:17:49.817Z,28.63
2023-02-17T00:18:49.845Z,28.63
2023-02-17T00:19:49.888Z,28.64
2023-02-17T00:20:49.920Z,28.60
2023-02-17T00:21:49.917Z,28.62
2023-02-17T00:22:49.964Z,28.62
2023-02-17T00:23:50.001Z,28.62
2023-02-17T00:24:50.033Z,28.63
2023-02-17T00:25:50.040Z,28.62
2023-02-17T00:26:50.064Z,28.62
2023-02-17T00:27:50.161Z,28.64
2023-02-17T00:28:50.291Z,28.60
2023-02-17T00:29:50.150Z,28.62
2023-02-17T00:30:50.240Z,28.60
2023-02-17T00:31:50.288Z,28.63
2023-02-17T00:32:50.266Z,28.63
2023-02-17T00:33:50.302Z,28.62
2023-02-17T00:34:50.294Z,28.62
2023-02-17T00:35:50.360Z,28.60
2023-02-17T00:36:50.363Z,28.62
2023-02-17T00:37:50.378Z,28.59
2023-02-17T00:38:50.421Z,28.60
2023-02-17T00:39:50.454Z,28.57
2023-02-17T00:40:50.468Z,28.60
2023-02-17T00:41:51.318Z,28.59
2023-02-17T00:42:50.545Z,28.62
2023-02-17T00:43:50.566Z,28.60
2023-02-17T00:44:50.600Z,28.59
2023-02-17T00:45:50.621Z,28.59
2023-02-17T00:46:50.827Z,28.60
2023-02-17T00:47:50.695Z,28.60
2023-02-17T00:48:50.780Z,28.57
2023-02-17T00:49:50.723Z,28.60
2023-02-17T00:50:50.773Z,28.60
2023-02-17T00:51:50.828Z,28.59
2023-02-17T00:52:50.844Z,28.59
2023-02-17T00:53:50.874Z,28.62
2023-02-17T00:54:50.896Z,28.59
2023-02-17T00:55:50.912Z,28.60
2023-02-17T00:56:50.928Z,28.62
2023-02-17T00:57:50.986Z,28.59
2023-02-17T00:58:51.013Z,28.57
2023-02-17T00:59:51.053Z,28.60
2023-02-17T01:00:51.065Z,28.59
2023-02-17T01:01:51.203Z,28.62
2023-02-17T01:02:51.112Z,28.59
2023-02-17T01:03:51.146Z,28.57
2023-02-17T01:04:51.175Z,28.59
2023-02-17T01:05:51.186Z,28.60
2023-02-17T01:06:51.230Z,28.57
2023-02-17T01:07:51.287Z,28.60
2023-02-17T01:08:51.288Z,28.59
2023-02-17T01:09:51.291Z,28.59
2023-02-17T01:10:51.348Z,28.62
2023-02-17T01:11:51.376Z,28.60
2023-02-17T01:12:51.408Z,28.57
2023-02-17T01:13:51.442Z,28.60
2023-02-17T01:14:51.445Z,28.59
2023-02-17T01:15:51.486Z,28.59
2023-02-17T01:16:51.519Z,28.59
2023-02-17T01:17:51.549Z,28.60
2023-02-17T01:18:51.591Z,28.57
2023-02-17T01:19:51.592Z,28.57
2023-02-17T01:20:51.643Z,28.57
2023-02-17T01:21:51.673Z,28.59
2023-02-17T01:22:51.702Z,28.57
2023-02-17T01:23:51.716Z,28.57
2023-02-17T01:24:51.731Z,28.57
2023-02-17T01:25:51.763Z,28.57
2023-02-17T01:26:51.812Z,28.56
2023-02-17T01:27:51.825Z,28.57
2023-02-17T01:28:51.867Z,28.57
2023-02-17T01:29:51.894Z,28.56
2023-02-17T01:30:51.954Z,28.57
2023-02-17T01:31:52.007Z,28.56
2023-02-17T01:32:51.963Z,28.55
2023-02-17T01:33:52.049Z,28.56
2023-02-17T01:34:52.009Z,28.55
2023-02-17T01:35:52.054Z,28.56
2023-02-17T01:36:52.061Z,28.55
2023-02-17T01:37:52.069Z,28.56
2023-02-17T01:38:52.064Z,28.55
2023-02-17T01:39:52.114Z,28.56
2023-02-17T01:40:52.095Z,28.56
2023-02-17T01:41:52.140Z,28.57
2023-02-17T01:42:52.229Z,28.55
2023-02-17T01:43:52.298Z,28.55
2023-02-17T01:44:52.270Z,28.55
2023-02-17T01:45:52.270Z,28.57
2023-02-17T01:46:52.349Z,28.55
2023-02-17T01:47:52.321Z,28.55
2023-02-17T01:48:52.369Z,28.57
2023-02-17T01:49:52.374Z,28.56
2023-02-17T01:50:52.418Z,28.56
2023-02-17T01:51:52.467Z,28.55
2023-02-17T01:52:52.485Z,28.56
2023-02-17T01:53:52.481Z,28.56
2023-02-17T01:54:52.523Z,28.55
2023-02-17T01:55:52.578Z,28.56
2023-02-17T01:56:52.655Z,28.57
2023-02-17T01:57:52.586Z,28.55
2023-02-17T01:58:52.649Z,28.55
2023-02-17T01:59:52.680Z,28.53
2023-02-17T02:00:52.720Z,28.53
2023-02-17T02:01:52.943Z,28.53
2023-02-17T02:02:52.873Z,28.53
2023-02-17T02:03:52.775Z,28.55
2023-02-17T02:04:52.823Z,28.56
2023-02-17T02:05:52.859Z,28.59
2023-02-17T02:06:52.910Z,28.55
2023-02-17T02:07:52.896Z,28.53
2023-02-17T02:08:52.935Z,28.55
2023-02-17T02:09:52.985Z,28.55
2023-02-17T02:10:53.028Z,28.55
2023-02-17T02:11:53.039Z,28.56
2023-02-17T02:12:53.110Z,28.55
2023-02-17T02:13:53.114Z,28.56
2023-02-17T02:14:53.124Z,28.56
2023-02-17T02:15:53.171Z,28.56
2023-02-17T02:16:53.197Z,28.56
2023-02-17T02:17:53.230Z,28.55
2023-02-17T02:18:53.268Z,28.57
2023-02-17T02:19:53.258Z,28.55
2023-02-17T02:20:53.309Z,28.55
2023-02-17T02:21:53.336Z,28.55
2023-02-17T02:22:53.388Z,28.55
2023-02-17T02:23:53.395Z,28.56
2023-02-17T02:24:53.426Z,28.57
2023-02-17T02:25:53.461Z,28.55
2023-02-17T02:26:53.485Z,28.57
2023-02-17T02:27:53.525Z,28.56
2023-02-17T02:28:53.556Z,28.57
2023-02-17T02:29:53.665Z,28.56
2023-02-17T02:30:53.659Z,28.56
2023-02-17T02:31:53.669Z,28.56
2023-02-17T02:32:53.658Z,28.59
2023-02-17T02:33:53.682Z,28.56
2023-02-17T02:34:53.735Z,28.56
2023-02-17T02:35:53.766Z,28.56
2023-02-17T02:36:53.820Z,28.55
2023-02-17T02:37:53.842Z,28.57
2023-02-17T02:38:53.856Z,28.56
2023-02-17T02:39:53.868Z,28.57
2023-02-17T02:40:53.912Z,28.57
2023-02-17T02:41:53.893Z,28.57
2023-02-17T02:42:53.935Z,28.56
2023-02-17T02:43:54.343Z,28.56
2023-02-17T02:44:53.986Z,28.55
2023-02-17T02:45:54.028Z,28.55
2023-02-17T02:46:54.037Z,28.56
2023-02-17T02:47:54.030Z,28.55
2023-02-17T02:48:54.050Z,28.53
2023-02-17T02:49:54.046Z,28.55
2023-02-17T02:50:54.104Z,28.53
2023-02-17T02:51:54.117Z,28.50
2023-02-17T02:52:54.159Z,28.53
2023-02-17T02:53:54.234Z,28.53
2023-02-17T02:54:54.246Z,28.56
2023-02-17T02:55:54.272Z,28.53
2023-02-17T02:56:54.286Z,28.55
2023-02-17T02:57:54.305Z,28.56
2023-02-17T02:58:54.341Z,28.53
2023-02-17T02:59:54.367Z,28.53
2023-02-17T03:00:54.471Z,28.53
2023-02-17T03:01:54.439Z,28.53
2023-02-17T03:02:54.478Z,28.53
2023-02-17T03:03:54.514Z,28.55
2023-02-17T03:04:54.535Z,28.53
2023-02-17T03:05:54.540Z,28.52
2023-02-17T03:06:54.561Z,28.52
2023-02-17T03:07:54.611Z,28.55
2023-02-17T03:08:54.657Z,28.52
2023-02-17T03:09:54.681Z,28.49
2023-02-17T03:10:54.702Z,28.52
2023-02-17T03:11:54.744Z,28.50
2023-02-17T03:12:54.760Z,28.52
2023-02-17T03:13:54.829Z,28.52
2023-02-17T03:14:54.830Z,28.50
2023-02-17T03:15:54.880Z,28.50
2023-02-17T03:16:54.921Z,28.52
2023-02-17T03:17:54.920Z,28.50
2023-02-17T03:18:54.979Z,28.50
2023-02-17T03:19:55.043Z,28.50
2023-02-17T03:20:55.047Z,28.52
2023-02-17T03:21:55.083Z,28.52
2023-02-17T03:22:55.116Z,28.52
2023-02-17T03:23:55.172Z,28.50
2023-02-17T03:24:55.181Z,28.49
2023-02-17T03:25:55.210Z,28.50
2023-02-17T03:26:55.253Z,28.53
2023-02-17T03:27:55.259Z,28.52
2023-02-17T03:28:55.310Z,28.53
2023-02-17T03:29:55.368Z,28.52
2023-02-17T03:30:55.378Z,28.53
2023-02-17T03:31:55.562Z,28.53
2023-02-17T03:32:55.454Z,28.50
2023-02-17T03:33:55.496Z,28.50
2023-02-17T03:34:55.529Z,28.52
2023-02-17T03:35:55.565Z,28.50
2023-02-17T03:36:55.589Z,28.52
2023-02-17T03:37:55.637Z,28.50
2023-02-17T03:38:55.640Z,28.53
2023-02-17T03:39:55.696Z,28.50
2023-02-17T03:40:55.735Z,28.52
2023-02-17T03:41:55.762Z,28.53
2023-02-17T03:42:55.800Z,28.49
2023-02-17T03:43:55.841Z,28.50
2023-02-17T03:44:55.895Z,28.50
2023-02-17T03:45:55.984Z,28.49
2023-02-17T03:46:55.934Z,28.49
2023-02-17T03:47:55.987Z,28.52
2023-02-17T03:48:56.018Z,28.50
2023-02-17T03:49:56.026Z,28.49
2023-02-17T03:50:56.059Z,28.50
2023-02-17T03:51:56.104Z,28.50
2023-02-17T03:52:56.118Z,28.52
2023-02-17T03:53:56.167Z,28.49
2023-02-17T03:54:56.196Z,28.50
2023-02-17T03:55:56.221Z,28.50
2023-02-17T03:56:56.245Z,28.52
2023-02-17T03:57:56.276Z,28.52
2023-02-17T03:58:56.325Z,28.49
2023-02-17T03:59:56.328Z,28.49
2023-02-17T04:00:56.399Z,28.49
2023-02-17T04:01:56.426Z,28.52
2023-02-17T04:02:56.454Z,28.50
2023-02-17T04:03:56.555Z,28.49
2023-02-17T04:04:56.524Z,28.50
2023-02-17T04:05:56.576Z,28.47
2023-02-17T04:06:56.614Z,28.49
2023-02-17T04:07:56.604Z,28.49
2023-02-17T04:08:56.661Z,28.49
2023-02-17T04:09:56.723Z,28.50
2023-02-17T04:10:56.732Z,28.52
2023-02-17T04:11:56.788Z,28.50
2023-02-17T04:12:56.816Z,28.53
2023-02-17T04:13:56.836Z,28.52
2023-02-17T04:14:56.864Z,28.52
2023-02-17T04:15:56.902Z,28.50
2023-02-17T04:16:56.924Z,28.52
2023-02-17T04:17:56.992Z,28.49
2023-02-17T04:18:57.008Z,28.50
2023-02-17T04:19:57.051Z,28.49
2023-02-17T04:20:57.084Z,28.49
2023-02-17T04:21:57.138Z,28.49
2023-02-17T04:22:57.168Z,28.50
2023-02-17T04:23:57.199Z,28.49
2023-02-17T04:24:57.220Z,28.49
2023-02-17T04:25:57.264Z,28.50
2023-02-17T04:26:57.294Z,28.52
2023-02-17T04:27:57.337Z,28.49
2023-02-17T04:28:57.371Z,28.50
2023-02-17T04:29:57.398Z,28.50
2023-02-17T04:30:57.577Z,28.50
2023-02-17T04:31:57.678Z,28.52
2023-02-17T04:32:57.511Z,28.52
2023-02-17T04:33:57.535Z,28.52
2023-02-17T04:34:57.593Z,28.53
2023-02-17T04:35:57.600Z,28.55
2023-02-17T04:36:57.647Z,28.55
2023-02-17T04:37:57.639Z,28.55
2023-02-17T04:38:57.758Z,28.55
2023-02-17T04:39:57.761Z,28.57
2023-02-17T04:40:57.774Z,28.60
2023-02-17T04:41:57.769Z,28.60
2023-02-17T04:42:57.821Z,28.59
2023-02-17T04:43:57.826Z,28.60
2023-02-17T04:44:57.865Z,28.63
2023-02-17T04:45:57.875Z,28.62
2023-02-17T04:46:57.951Z,28.63
2023-02-17T04:47:57.954Z,28.62
2023-02-17T04:48:57.988Z,28.64
2023-02-17T04:49:58.037Z,28.66
2023-02-17T04:50:58.046Z,28.64
2023-02-17T04:51:58.085Z,28.63
2023-02-17T04:52:58.088Z,28.67
2023-02-17T04:53:58.124Z,28.66
2023-02-17T04:54:58.143Z,28.69
2023-02-17T04:55:58.168Z,28.69
2023-02-17T04:56:58.222Z,28.66
2023-02-17T04:57:58.257Z,28.69
2023-02-17T04:58:58.362Z,28.67
2023-02-17T04:59:58.303Z,28.67
2023-02-17T05:00:58.306Z,28.64
2023-02-17T05:01:58.355Z,28.69
2023-02-17T05:02:58.390Z,28.69
2023-02-17T05:03:58.447Z,28.67
2023-02-17T05:04:58.496Z,28.69
2023-02-17T05:05:58.450Z,28.67
2023-02-17T05:06:58.479Z,28.69
2023-02-17T05:07:58.544Z,28.69
2023-02-17T05:08:58.553Z,28.69
2023-02-17T05:09:58.610Z,28.70
2023-02-17T05:10:58.589Z,28.71
2023-02-17T05:11:58.628Z,28.70
2023-02-17T05:12:58.674Z,28.67
2023-02-17T05:13:58.669Z,28.67
2023-02-17T05:14:58.695Z,28.67
2023-02-17T05:15:58.733Z,28.66
2023-02-17T05:16:58.719Z,28.67
2023-02-17T05:17:58.776Z,28.70
2023-02-17T05:18:58.763Z,28.69
2023-02-17T05:19:58.769Z,28.69
2023-02-17T05:20:58.779Z,28.69
2023-02-17T05:21:58.843Z,28.67
2023-02-17T05:22:58.799Z,28.69
2023-02-17T05:23:58.862Z,28.69
2023-02-17T05:24:58.885Z,28.67
2023-02-17T05:25:58.864Z,28.66
2023-02-17T05:26:58.907Z,28.67
2023-02-17T05:27:58.934Z,28.70
2023-02-17T05:28:58.980Z,28.69
2023-02-17T05:29:59.068Z,28.67
2023-02-17T05:30:59.050Z,28.67
2023-02-17T05:31:59.049Z,28.71
2023-02-17T05:32:59.026Z,28.67
2023-02-17T05:33:59.051Z,28.70
2023-02-17T05:34:59.051Z,28.70
2023-02-17T05:35:59.037Z,28.70
2023-02-17T05:36:59.063Z,28.69
2023-02-17T05:37:59.069Z,28.69
2023-02-17T05:38:59.165Z,28.70
2023-02-17T05:39:59.167Z,28.71
2023-02-17T05:40:59.197Z,28.70
2023-02-17T05:41:59.197Z,28.70
2023-02-17T05:42:59.218Z,28.69
2023-02-17T05:43:59.253Z,28.69
2023-02-17T05:44:59.303Z,28.70
2023-02-17T05:45:59.307Z,28.70
2023-02-17T05:46:59.301Z,28.69
2023-02-17T05:47:59.317Z,28.70
2023-02-17T05:48:59.278Z,28.69
2023-02-17T05:49:59.337Z,28.71
2023-02-17T05:50:59.399Z,28.70
2023-02-17T05:51:59.482Z,28.71
2023-02-17T05:52:59.621Z,28.71
2023-02-17T05:53:59.740Z,28.71
2023-02-17T05:54:59.839Z,28.74
2023-02-17T05:55:59.884Z,28.76
2023-02-17T05:57:00.002Z,28.73
2023-02-17T05:58:00.123Z,28.74
2023-02-17T05:59:00.205Z,28.73
2023-02-17T06:00:00.285Z,28.77
2023-02-17T06:01:07.417Z,28.76
2023-02-17T06:02:00.405Z,28.76
2023-02-17T06:03:00.411Z,28.76
2023-02-17T06:04:00.379Z,28.76
2023-02-17T06:05:00.494Z,28.76
2023-02-17T06:06:00.350Z,28.79
2023-02-17T06:07:00.379Z,28.77
2023-02-17T06:08:00.326Z,28.74
2023-02-17T06:09:00.420Z,28.77
2023-02-17T06:10:00.355Z,28.79
2023-02-17T06:11:00.320Z,28.77
2023-02-17T06:12:00.322Z,28.77
2023-02-17T06:13:00.290Z,28.79
2023-02-17T06:14:00.305Z,28.76
2023-02-17T06:15:00.313Z,28.83
2023-02-17T06:16:00.331Z,28.80
2023-02-17T06:17:01.069Z,28.80
2023-02-17T06:18:00.274Z,28.80
2023-02-17T06:19:00.262Z,28.80
2023-02-17T06:20:00.254Z,28.81
2023-02-17T06:21:00.228Z,28.81
2023-02-17T06:22:00.266Z,28.80
2023-02-17T06:23:00.228Z,28.81
2023-02-17T06:24:00.243Z,28.79
2023-02-17T06:25:00.216Z,28.84
2023-02-17T06:26:00.217Z,28.83
2023-02-17T06:27:00.221Z,28.81
2023-02-17T06:28:00.184Z,28.81
2023-02-17T06:29:00.188Z,28.80
2023-02-17T06:30:00.242Z,28.81
2023-02-17T06:31:00.217Z,28.80
2023-02-17T06:32:00.337Z,28.80
2023-02-17T06:33:00.178Z,28.79
2023-02-17T06:34:00.165Z,28.79
2023-02-17T06:35:00.119Z,28.79
2023-02-17T06:36:00.140Z,28.81
2023-02-17T06:37:00.128Z,28.79
2023-02-17T06:38:00.172Z,28.81
2023-02-17T06:39:00.150Z,28.81
2023-02-17T06:40:00.169Z,28.83
2023-02-17T06:41:00.117Z,28.83
2023-02-17T06:42:00.124Z,28.80
2023-02-17T06:43:00.098Z,28.79
2023-02-17T06:44:00.112Z,28.79
2023-02-17T06:45:00.122Z,28.79
2023-02-17T06:46:07.440Z,28.80
2023-02-17T06:47:00.116Z,28.79
2023-02-17T09:05:02.770Z,28.97
2023-02-17T09:06:02.770Z,29.00
2023-02-17T09:07:02.795Z,29.00
2023-02-17T09:08:02.865Z,29.00
2023-02-17T09:09:02.880Z,29.00
2023-02-17T09:10:02.903Z,29.00
2023-02-17T09:11:02.940Z,29.00
2023-02-17T09:12:02.975Z,29.00
2023-02-17T09:22:03.393Z,29.04
2023-02-17T09:23:03.472Z,29.04
2023-02-17T09:24:03.529Z,29.06
2023-02-17T09:25:03.590Z,29.06
2023-02-17T09:26:03.780Z,29.07
2023-02-17T09:27:03.680Z,29.07
2023-02-17T09:28:03.694Z,29.09
2023-02-17T09:29:03.766Z,29.09
2023-02-17T09:30:03.842Z,29.09
2023-02-17T09:31:03.865Z,29.07
2023-02-17T09:32:04.064Z,29.09
2023-02-17T09:33:03.886Z,29.09
2023-02-17T09:34:03.941Z,29.11
2023-02-17T09:35:03.956Z,29.11
2023-02-17T09:36:04.220Z,29.09
2023-02-17T09:37:04.071Z,29.10
2023-02-17T09:38:04.078Z,29.09
2023-02-17T09:39:04.116Z,29.09
2023-02-17T09:40:04.162Z,29.09
2023-02-17T09:41:04.214Z,29.10
2023-02-17T09:42:04.224Z,29.14
2023-02-17T09:43:04.275Z,29.17
2023-02-17T09:44:04.371Z,29.16
2023-02-17T09:45:04.404Z,29.18
2023-02-17T09:46:04.626Z,29.20
2023-02-17T09:47:04.530Z,29.21
2023-02-17T09:48:04.561Z,29.20
2023-02-17T09:49:04.613Z,29.20
2023-02-17T09:50:04.677Z,29.24
2023-02-17T09:51:04.665Z,29.22
2023-02-17T09:52:04.718Z,29.21
2023-02-17T09:53:04.787Z,29.21
2023-02-17T09:55:04.920Z,29.22
2023-02-17T09:56:05.384Z,29.22
2023-02-17T09:57:05.087Z,29.24
2023-02-17T09:58:05.072Z,29.21
2023-02-17T09:59:05.092Z,29.20
2023-02-17T10:00:05.216Z,29.20
2023-02-17T10:01:05.276Z,29.21
2023-02-17T10:02:05.334Z,29.22
2023-02-17T10:03:05.372Z,29.20
2023-02-17T10:16:06.553Z,29.20
2023-02-17T12:06:12.635Z,29.75
2023-02-17T12:07:12.736Z,29.76
2023-02-17T12:08:12.795Z,29.76
2023-02-17T12:09:12.840Z,29.78
2023-02-17T12:10:12.902Z,29.76
2023-02-17T12:11:12.979Z,29.76
2023-02-17T12:12:13.059Z,29.76
2023-02-17T12:13:13.091Z,29.78
2023-02-17T12:14:13.165Z,29.78
2023-02-17T12:15:13.247Z,29.75
2023-02-17T12:16:13.315Z,29.76
2023-02-17T12:17:13.333Z,29.78
2023-02-17T12:18:13.405Z,29.78
2023-02-17T12:19:13.425Z,29.76
2023-02-17T12:20:13.501Z,29.81
2023-02-17T12:21:13.593Z,29.79
2023-02-17T12:22:13.601Z,29.81
2023-02-17T12:23:13.669Z,29.78
2023-02-17T12:24:13.713Z,29.79
2023-02-17T12:25:13.834Z,29.79
2023-02-17T12:26:13.850Z,29.79
2023-02-17T12:27:13.885Z,29.83
2023-02-17T12:28:13.939Z,29.81
2023-02-17T12:29:13.979Z,29.81
2023-02-17T12:30:14.199Z,29.82
2023-02-17T12:31:14.276Z,29.82
2023-02-17T12:32:14.180Z,29.82
2023-02-17T12:33:14.181Z,29.78
2023-02-17T12:34:14.252Z,29.81
2023-02-17T12:35:14.296Z,29.78
2023-02-17T12:36:14.351Z,29.79
2023-02-17T12:37:14.405Z,29.78
2023-02-17T12:38:14.438Z,29.78
2023-02-17T12:39:14.582Z,29.79
2023-02-17T12:40:14.551Z,29.79
2023-02-17T12:41:14.594Z,29.78
2023-02-17T12:42:14.666Z,29.75
2023-02-17T12:43:14.717Z,29.75
2023-02-17T12:44:14.784Z,29.76
2023-02-17T12:45:14.821Z,29.78
2023-02-17T12:46:14.915Z,29.74
2023-02-17T12:47:14.887Z,29.74
2023-02-17T12:48:14.960Z,29.72
2023-02-17T12:49:15.070Z,29.75
2023-02-17T12:50:15.202Z,29.74
2023-02-17T12:51:15.179Z,29.74
2023-02-17T12:52:15.201Z,29.74
2023-02-17T12:53:15.245Z,29.74
2023-02-17T12:54:15.314Z,29.75
2023-02-17T12:55:15.367Z,29.76
2023-02-17T12:56:15.427Z,29.76
2023-02-17T12:57:15.473Z,29.74
2023-02-17T12:58:15.514Z,29.75
2023-02-17T12:59:15.564Z,29.75
2023-02-17T13:00:15.638Z,29.75
2023-02-17T13:01:15.731Z,29.76
2023-02-17T13:02:15.883Z,29.75
2023-02-17T13:03:15.889Z,29.75
2023-02-17T13:04:15.929Z,29.75
2023-02-17T13:05:15.965Z,29.72
2023-02-17T13:06:15.994Z,29.75
2023-02-17T13:07:16.056Z,29.74
2023-02-17T13:08:16.115Z,29.75
2023-02-17T13:09:16.174Z,29.74
2023-02-17T13:10:16.216Z,29.75
2023-02-17T13:11:16.256Z,29.75
2023-02-17T13:12:16.336Z,29.76
2023-02-17T13:13:16.402Z,29.74
2023-02-17T13:14:16.419Z,29.74
2023-02-17T13:15:16.516Z,29.72
2023-02-17T13:16:16.576Z,29.75
2023-02-17T13:17:16.591Z,29.74
2023-02-17T13:18:16.639Z,29.74
2023-02-17T13:19:16.720Z,29.69
2023-02-17T13:20:16.756Z,29.71
2023-02-17T13:21:16.778Z,29.72
2023-02-17T13:22:16.820Z,29.71
2023-02-17T13:23:16.881Z,29.69
2023-02-17T13:24:16.935Z,29.71
2023-02-17T13:25:16.998Z,29.69
2023-02-17T13:26:17.059Z,29.71
2023-02-17T13:27:17.113Z,29.69
2023-02-17T13:28:17.146Z,29.72
2023-02-17T13:29:17.205Z,29.71
2023-02-17T13:30:17.377Z,29.69
2023-02-17T13:31:17.421Z,29.71
2023-02-17T13:32:17.470Z,29.74
2023-02-17T13:33:17.391Z,29.71
2023-02-17T13:34:17.474Z,29.71
2023-02-17T13:35:17.523Z,29.69
2023-02-17T13:36:17.554Z,29.72
2023-02-17T13:37:17.618Z,29.69
2023-02-17T13:38:17.651Z,29.69
2023-02-17T13:39:17.789Z,29.74
2023-02-17T13:40:17.811Z,29.69
2023-02-17T13:41:17.826Z,29.69
2023-02-17T13:43:17.932Z,29.69
2023-02-17T13:44:18.013Z,29.65
2023-02-17T13:45:18.055Z,29.69
2023-02-17T13:46:18.223Z,29.68
2023-02-17T13:47:18.163Z,29.67
2023-02-17T13:48:18.198Z,29.65
2023-02-17T13:49:18.258Z,29.68
2023-02-17T13:50:18.333Z,29.64
2023-02-17T14:24:20.274Z,29.50
2023-02-17T14:25:20.345Z,29.48
2023-02-17T14:28:20.550Z,29.47
2023-02-17T14:29:20.594Z,29.48
2023-02-17T14:30:20.675Z,29.47
2023-02-17T14:31:20.768Z,29.47
2023-02-17T14:32:20.787Z,29.47
2023-02-17T14:33:20.993Z,29.48
2023-02-17T14:34:20.897Z,29.47
2023-02-17T14:35:20.968Z,29.48
2023-02-17T14:36:21.009Z,29.45
2023-02-17T14:37:21.069Z,29.44
2023-02-17T14:39:21.186Z,29.45
2023-02-17T14:40:21.192Z,29.42
2023-02-17T14:41:21.225Z,29.45
2023-02-17T14:42:21.270Z,29.41
2023-02-17T14:43:21.314Z,29.42
2023-02-17T14:44:21.347Z,29.41
2023-02-17T14:45:21.425Z,29.42
2023-02-17T14:46:21.433Z,29.44
2023-02-17T14:47:21.494Z,29.38
2023-02-17T14:48:21.485Z,29.38
2023-02-17T14:49:21.497Z,29.41
2023-02-17T14:50:21.594Z,29.41
2023-02-17T14:51:21.613Z,29.41
2023-02-17T14:52:21.621Z,29.40
2023-02-17T14:53:21.632Z,29.40
2023-02-17T14:54:21.624Z,29.38
2023-02-17T14:55:21.671Z,29.37
2023-02-17T14:56:22.227Z,29.35
2023-02-17T14:57:21.689Z,29.37
2023-02-17T14:58:21.884Z,29.34
2023-02-17T14:59:21.738Z,29.32
2023-02-17T15:23:22.553Z,29.22
2023-02-17T15:24:22.657Z,29.22
2023-02-17T15:25:22.739Z,29.24
2023-02-17T15:26:22.739Z,29.22
2023-02-17T15:27:22.712Z,29.20
2023-02-17T15:28:22.705Z,29.22
2023-02-17T15:29:22.744Z,29.22
2023-02-17T15:30:22.841Z,29.22
2023-02-17T15:31:22.864Z,29.20
2023-02-17T15:32:22.902Z,29.21
2023-02-17T15:33:22.782Z,29.20
2023-02-17T15:34:22.793Z,29.21
2023-02-17T15:35:22.819Z,29.20
2023-02-17T15:36:22.865Z,29.18
2023-02-17T15:37:23.135Z,29.18
2023-02-17T15:38:23.080Z,29.16
2023-02-17T15:39:23.156Z,29.16
2023-02-17T15:40:23.172Z,29.20
2023-02-17T15:41:23.189Z,29.16
2023-02-17T15:42:23.153Z,29.14
2023-02-17T15:43:23.197Z,29.14
2023-02-17T15:44:23.163Z,29.14
2023-02-17T15:45:23.232Z,29.13
2023-02-17T15:46:23.366Z,29.11
2023-02-17T15:47:23.431Z,29.14
2023-02-17T15:48:23.453Z,29.14
2023-02-17T15:49:23.440Z,29.09
2023-02-17T15:50:23.472Z,29.10
2023-02-17T15:51:23.459Z,29.11
2023-02-17T15:52:23.449Z,29.11
2023-02-17T15:53:23.533Z,29.10
2023-02-17T15:54:23.646Z,29.10
2023-02-17T15:55:23.729Z,29.09
2023-02-17T15:56:23.872Z,29.06
2023-02-17T15:57:23.897Z,29.09
2023-02-17T15:58:23.908Z,29.03
2023-02-17T15:59:23.926Z,29.06
2023-02-17T16:00:23.952Z,29.07
2023-02-17T16:01:23.961Z,29.04
2023-02-17T16:02:23.936Z,29.03
2023-02-17T16:03:24.090Z,29.03
2023-02-17T16:04:24.040Z,29.04
2023-02-17T16:05:24.024Z,29.00
2023-02-17T16:06:24.042Z,29.01
2023-02-17T16:07:24.037Z,29.01
2023-02-17T16:08:24.057Z,29.04
2023-02-17T16:09:24.120Z,29.03
2023-02-17T16:10:24.261Z,29.01
2023-02-17T16:11:24.235Z,29.01
2023-02-17T16:12:24.272Z,28.99
2023-02-17T16:13:24.278Z,28.97
2023-02-17T16:14:24.288Z,29.00
2023-02-17T16:15:24.303Z,28.99
2023-02-17T16:16:24.467Z,28.97
2023-02-17T16:17:24.365Z,28.97
2023-02-17T16:18:24.383Z,28.96
2023-02-17T16:19:24.409Z,28.94
2023-02-17T16:20:24.421Z,28.94
2023-02-17T16:21:24.444Z,28.93
2023-02-17T16:22:24.453Z,28.93
2023-02-17T16:23:24.462Z,28.91
2023-02-17T16:24:24.507Z,28.93
2023-02-17T16:25:24.520Z,28.93
2023-02-17T16:26:24.548Z,28.91
2023-02-17T16:27:24.537Z,28.90
2023-02-17T16:28:24.595Z,28.91
2023-02-17T16:29:24.618Z,28.90
2023-02-17T16:30:24.717Z,28.90
2023-02-17T16:31:24.794Z,28.87
2023-02-17T16:32:24.821Z,28.86
2023-02-17T16:33:24.736Z,28.86
2023-02-17T16:34:24.756Z,28.86
2023-02-17T16:35:24.780Z,28.84
2023-02-17T16:36:24.835Z,28.81
2023-02-17T16:37:24.833Z,28.81
2023-02-17T16:38:24.877Z,28.80
2023-02-17T16:39:24.923Z,28.83
2023-02-17T16:40:24.940Z,28.79
2023-02-17T16:41:24.982Z,28.81
2023-02-17T16:42:25.042Z,28.79
2023-02-17T16:43:25.048Z,28.80
2023-02-17T16:44:25.056Z,28.77
2023-02-17T16:45:25.170Z,28.79
2023-02-17T16:46:25.136Z,28.80
2023-02-17T16:47:25.166Z,28.80
2023-02-17T16:48:25.170Z,28.76
2023-02-17T16:49:25.226Z,28.79
2023-02-17T16:50:25.277Z,28.77
2023-02-17T16:51:25.271Z,28.76
2023-02-17T16:52:25.331Z,28.77
2023-02-17T16:53:25.304Z,28.76
2023-02-17T16:54:25.385Z,28.73
2023-02-17T16:55:25.405Z,28.74
2023-02-17T16:56:25.450Z,28.74
2023-02-17T16:57:25.464Z,28.74
2023-02-17T16:58:25.521Z,28.73
2023-02-17T16:59:25.535Z,28.71
2023-02-17T17:00:25.563Z,28.70
2023-02-17T17:01:25.572Z,28.70
2023-02-17T17:02:25.645Z,28.69
2023-02-17T17:03:25.711Z,28.70
2023-02-17T17:04:25.667Z,28.69
2023-02-17T17:05:25.702Z,28.69
2023-02-17T17:06:25.750Z,28.66
2023-02-17T17:07:25.733Z,28.67
2023-02-17T17:08:25.780Z,28.69
2023-02-17T17:09:25.806Z,28.67
2023-02-17T17:10:25.832Z,28.67
2023-02-17T17:11:25.897Z,28.67
2023-02-17T17:12:25.914Z,28.69
2023-02-17T17:13:25.968Z,28.64
2023-02-17T17:14:25.973Z,28.63
2023-02-17T17:15:25.960Z,28.63
2023-02-17T17:16:26.086Z,28.66
2023-02-17T17:17:26.046Z,28.62
2023-02-17T17:18:26.100Z,28.66
2023-02-17T17:19:26.130Z,28.62
2023-02-17T17:20:26.329Z,28.63
2023-02-17T17:21:26.177Z,28.63
2023-02-17T17:22:26.177Z,28.59
2023-02-17T17:23:26.250Z,28.60
2023-02-17T17:24:26.254Z,28.60
2023-02-17T17:25:26.264Z,28.62
2023-02-17T17:26:26.283Z,28.63
2023-02-17T17:27:26.335Z,28.60
2023-02-17T17:28:26.357Z,28.57
2023-02-17T17:29:26.328Z,28.57
2023-02-17T17:30:26.389Z,28.59
2023-02-17T17:31:26.477Z,28.57
2023-02-17T17:32:26.565Z,28.56
2023-02-17T17:33:26.510Z,28.57
2023-02-17T17:34:26.519Z,28.56
2023-02-17T17:35:26.588Z,28.56
2023-02-17T17:36:26.628Z,28.55
2023-02-17T17:37:26.591Z,28.53
2023-02-17T17:38:26.639Z,28.55
2023-02-17T17:39:26.676Z,28.55
2023-02-17T17:40:26.724Z,28.53
2023-02-17T17:41:26.728Z,28.52
2023-02-17T17:42:26.797Z,28.52
2023-02-17T17:43:26.789Z,28.50
2023-02-17T17:44:26.842Z,28.52
2023-02-17T17:45:26.896Z,28.49
2023-02-17T17:46:26.967Z,28.53
2023-02-17T17:47:30.154Z,28.49
2023-02-17T17:48:27.799Z,28.50
2023-02-17T17:49:26.937Z,28.50
2023-02-17T17:50:26.914Z,28.47
2023-02-17T17:51:26.937Z,28.50
2023-02-17T17:52:26.901Z,28.49
2023-02-17T17:53:26.925Z,28.47
2023-02-17T17:54:26.923Z,28.47
2023-02-17T17:55:26.909Z,28.46
2023-02-17T17:56:26.875Z,28.49
2023-02-17T17:57:26.904Z,28.46
2023-02-17T17:58:26.886Z,28.47
2023-02-17T17:59:26.899Z,28.45
2023-02-17T18:00:26.872Z,28.47
2023-02-17T18:03:26.888Z,28.45
2023-02-17T18:04:27.014Z,28.46
2023-02-17T18:05:26.827Z,28.46
2023-02-17T18:06:26.802Z,28.43
2023-02-17T18:09:31.803Z,28.42
2023-02-17T18:10:27.920Z,28.43
2023-02-17T18:11:26.754Z,28.43
2023-02-17T18:12:26.762Z,28.43
2023-02-17T18:13:26.740Z,28.42
2023-02-17T18:14:26.772Z,28.42
2023-02-17T18:15:26.777Z,28.39
2023-02-17T18:16:26.731Z,28.40
2023-02-17T18:17:26.729Z,28.42
2023-02-17T18:18:26.702Z,28.38
2023-02-17T18:19:26.724Z,28.40
2023-02-17T18:20:26.724Z,28.38
2023-02-17T18:21:26.770Z,28.40
2023-02-17T18:22:26.853Z,28.40
2023-02-17T18:23:26.883Z,28.40
2023-02-17T18:24:26.915Z,28.38
2023-02-17T18:25:26.992Z,28.36